sensor_id;sensor_type;location;lat;lon;timestamp;P1;durP1;ratioP1;P2;durP2;ratioP2
15402;SDS011;7799;53.478;10.170;2023-08-01T00:01:58;1.10;;;1.10;;
15402;SDS011;7799;53.478;10.170;2023-08-01T00:04:24;1.10;;;1.10;;
15402;SDS011;7799;53.478;10.170;2023-08-01T00:06:51;1.10;;;1.10;;
15402;SDS011;7799;53.478;10.170;2023-08-01T00:09:18;1.00;;;1.00;;
15402;SDS011;7799;53.478;10.170;2023-08-01T00:11:44;1.80;;;1.33;;
15402;SDS011;7799;53.478;10.170;2023-08-01T00:14:12;1.20;;;1.20;;
15402;SDS011;7799;53.478;10.170;2023-08-01T00:16:39;0.87;;;0.87;;
15402;SDS011;7799;53.478;10.170;2023-08-01T00:19:06;0.80;;;0.80;;
15402;SDS011;7799;53.478;10.170;2023-08-01T00:21:32;0.80;;;0.80;;
15402;SDS011;7799;53.478;10.170;2023-08-01T00:23:59;0.90;;;0.90;;
15402;SDS011;7799;53.478;10.170;2023-08-01T00:26:26;0.90;;;0.90;;
15402;SDS011;7799;53.478;10.170;2023-08-01T00:28:52;0.80;;;0.80;;
15402;SDS011;7799;53.478;10.170;2023-08-01T00:31:20;1.00;;;1.00;;
15402;SDS011;7799;53.478;10.170;2023-08-01T00:33:47;0.90;;;0.90;;
15402;SDS011;7799;53.478;10.170;2023-08-01T00:36:14;0.70;;;0.70;;
15402;SDS011;7799;53.478;10.170;2023-08-01T00:38:40;1.00;;;1.00;;
15402;SDS011;7799;53.478;10.170;2023-08-01T00:41:08;1.10;;;1.10;;
15402;SDS011;7799;53.478;10.170;2023-08-01T00:43:35;1.00;;;1.00;;
15402;SDS011;7799;53.478;10.170;2023-08-01T00:46:03;1.00;;;1.00;;
15402;SDS011;7799;53.478;10.170;2023-08-01T00:48:32;1.00;;;1.00;;
15402;SDS011;7799;53.478;10.170;2023-08-01T00:50:59;1.20;;;1.20;;
15402;SDS011;7799;53.478;10.170;2023-08-01T00:53:28;1.00;;;1.00;;
15402;SDS011;7799;53.478;10.170;2023-08-01T00:55:55;1.20;;;1.20;;
15402;SDS011;7799;53.478;10.170;2023-08-01T00:58:22;1.30;;;1.23;;
15402;SDS011;7799;53.478;10.170;2023-08-01T01:00:49;1.10;;;1.10;;
15402;SDS011;7799;53.478;10.170;2023-08-01T01:03:16;1.60;;;1.50;;
15402;SDS011;7799;53.478;10.170;2023-08-01T01:05:46;1.50;;;1.40;;
15402;SDS011;7799;53.478;10.170;2023-08-01T01:08:16;1.30;;;1.10;;
15402;SDS011;7799;53.478;10.170;2023-08-01T01:10:42;1.67;;;1.17;;
15402;SDS011;7799;53.478;10.170;2023-08-01T01:13:09;1.00;;;1.00;;
15402;SDS011;7799;53.478;10.170;2023-08-01T01:15:36;1.70;;;1.07;;
15402;SDS011;7799;53.478;10.170;2023-08-01T01:18:02;1.03;;;1.03;;
15402;SDS011;7799;53.478;10.170;2023-08-01T01:20:32;1.40;;;1.30;;
15402;SDS011;7799;53.478;10.170;2023-08-01T01:23:00;1.00;;;1.00;;
15402;SDS011;7799;53.478;10.170;2023-08-01T01:25:27;1.17;;;1.17;;
15402;SDS011;7799;53.478;10.170;2023-08-01T01:27:54;1.10;;;1.10;;
15402;SDS011;7799;53.478;10.170;2023-08-01T01:30:20;1.40;;;1.30;;
15402;SDS011;7799;53.478;10.170;2023-08-01T01:32:48;1.20;;;1.20;;
15402;SDS011;7799;53.478;10.170;2023-08-01T01:35:15;1.20;;;1.20;;
15402;SDS011;7799;53.478;10.170;2023-08-01T01:37:43;1.30;;;1.20;;
15402;SDS011;7799;53.478;10.170;2023-08-01T01:40:10;2.90;;;1.30;;
15402;SDS011;7799;53.478;10.170;2023-08-01T01:42:37;1.50;;;1.40;;
15402;SDS011;7799;53.478;10.170;2023-08-01T01:45:04;0.87;;;0.87;;
15402;SDS011;7799;53.478;10.170;2023-08-01T01:47:31;1.10;;;1.10;;
15402;SDS011;7799;53.478;10.170;2023-08-01T01:49:58;1.10;;;1.10;;
15402;SDS011;7799;53.478;10.170;2023-08-01T01:52:24;1.10;;;1.10;;
15402;SDS011;7799;53.478;10.170;2023-08-01T01:54:53;1.20;;;1.20;;
15402;SDS011;7799;53.478;10.170;2023-08-01T01:57:19;0.97;;;0.97;;
15402;SDS011;7799;53.478;10.170;2023-08-01T01:59:46;1.53;;;1.37;;
15402;SDS011;7799;53.478;10.170;2023-08-01T02:02:13;1.00;;;1.00;;
15402;SDS011;7799;53.478;10.170;2023-08-01T02:04:39;1.30;;;1.30;;
15402;SDS011;7799;53.478;10.170;2023-08-01T02:07:06;0.93;;;0.93;;
15402;SDS011;7799;53.478;10.170;2023-08-01T02:09:33;1.30;;;1.30;;
15402;SDS011;7799;53.478;10.170;2023-08-01T02:12:01;1.13;;;1.13;;
15402;SDS011;7799;53.478;10.170;2023-08-01T02:14:29;1.00;;;1.00;;
15402;SDS011;7799;53.478;10.170;2023-08-01T02:16:56;0.90;;;0.90;;
15402;SDS011;7799;53.478;10.170;2023-08-01T02:19:23;1.40;;;1.30;;
15402;SDS011;7799;53.478;10.170;2023-08-01T02:21:49;1.20;;;1.20;;
15402;SDS011;7799;53.478;10.170;2023-08-01T02:24:16;1.57;;;1.47;;
15402;SDS011;7799;53.478;10.170;2023-08-01T02:26:43;1.37;;;1.37;;
15402;SDS011;7799;53.478;10.170;2023-08-01T02:29:11;1.20;;;1.20;;
15402;SDS011;7799;53.478;10.170;2023-08-01T02:31:37;1.50;;;1.40;;
15402;SDS011;7799;53.478;10.170;2023-08-01T02:34:04;1.30;;;1.30;;
15402;SDS011;7799;53.478;10.170;2023-08-01T02:36:31;1.57;;;1.47;;
15402;SDS011;7799;53.478;10.170;2023-08-01T02:38:57;1.60;;;1.50;;
15402;SDS011;7799;53.478;10.170;2023-08-01T02:41:24;1.90;;;1.80;;
15402;SDS011;7799;53.478;10.170;2023-08-01T02:43:51;2.53;;;2.33;;
15402;SDS011;7799;53.478;10.170;2023-08-01T02:46:19;2.20;;;2.10;;
15402;SDS011;7799;53.478;10.170;2023-08-01T02:48:45;2.40;;;2.30;;
15402;SDS011;7799;53.478;10.170;2023-08-01T02:51:12;2.03;;;1.93;;
15402;SDS011;7799;53.478;10.170;2023-08-01T02:53:39;2.13;;;2.03;;
15402;SDS011;7799;53.478;10.170;2023-08-01T02:56:06;2.33;;;2.23;;
15402;SDS011;7799;53.478;10.170;2023-08-01T02:58:35;2.70;;;2.50;;
15402;SDS011;7799;53.478;10.170;2023-08-01T03:01:05;2.90;;;2.70;;
15402;SDS011;7799;53.478;10.170;2023-08-01T03:03:35;3.20;;;3.00;;
15402;SDS011;7799;53.478;10.170;2023-08-01T03:06:02;2.57;;;2.43;;
15402;SDS011;7799;53.478;10.170;2023-08-01T03:08:29;2.90;;;2.70;;
15402;SDS011;7799;53.478;10.170;2023-08-01T03:10:56;2.63;;;2.50;;
15402;SDS011;7799;53.478;10.170;2023-08-01T03:13:23;2.30;;;2.20;;
15402;SDS011;7799;53.478;10.170;2023-08-01T03:15:49;2.37;;;2.27;;
15402;SDS011;7799;53.478;10.170;2023-08-01T03:18:16;2.37;;;2.20;;
15402;SDS011;7799;53.478;10.170;2023-08-01T03:20:44;2.33;;;2.23;;
15402;SDS011;7799;53.478;10.170;2023-08-01T03:23:11;3.07;;;2.87;;
15402;SDS011;7799;53.478;10.170;2023-08-01T03:25:38;2.70;;;2.50;;
15402;SDS011;7799;53.478;10.170;2023-08-01T03:28:05;2.60;;;2.50;;
15402;SDS011;7799;53.478;10.170;2023-08-01T03:30:32;3.00;;;2.80;;
15402;SDS011;7799;53.478;10.170;2023-08-01T03:32:59;3.13;;;2.93;;
15402;SDS011;7799;53.478;10.170;2023-08-01T03:35:27;3.90;;;3.37;;
15402;SDS011;7799;53.478;10.170;2023-08-01T03:37:55;3.00;;;2.80;;
15402;SDS011;7799;53.478;10.170;2023-08-01T03:40:23;3.27;;;3.07;;
15402;SDS011;7799;53.478;10.170;2023-08-01T03:42:49;3.47;;;3.27;;
15402;SDS011;7799;53.478;10.170;2023-08-01T03:45:16;2.87;;;2.67;;
15402;SDS011;7799;53.478;10.170;2023-08-01T03:47:43;2.60;;;2.50;;
15402;SDS011;7799;53.478;10.170;2023-08-01T03:50:09;3.10;;;2.90;;
15402;SDS011;7799;53.478;10.170;2023-08-01T03:52:37;2.90;;;2.70;;
15402;SDS011;7799;53.478;10.170;2023-08-01T03:55:05;3.00;;;2.80;;
15402;SDS011;7799;53.478;10.170;2023-08-01T03:57:32;2.90;;;2.70;;
15402;SDS011;7799;53.478;10.170;2023-08-01T04:00:01;2.70;;;2.50;;
15402;SDS011;7799;53.478;10.170;2023-08-01T04:02:37;2.30;;;2.20;;
15402;SDS011;7799;53.478;10.170;2023-08-01T04:05:04;2.40;;;2.30;;
15402;SDS011;7799;53.478;10.170;2023-08-01T04:07:31;2.20;;;2.10;;
15402;SDS011;7799;53.478;10.170;2023-08-01T04:09:58;2.10;;;2.00;;
15402;SDS011;7799;53.478;10.170;2023-08-01T04:12:25;3.23;;;2.93;;
15402;SDS011;7799;53.478;10.170;2023-08-01T04:14:52;3.20;;;3.00;;
15402;SDS011;7799;53.478;10.170;2023-08-01T04:17:19;2.57;;;2.37;;
15402;SDS011;7799;53.478;10.170;2023-08-01T04:19:45;2.50;;;2.40;;
15402;SDS011;7799;53.478;10.170;2023-08-01T04:22:12;2.97;;;2.77;;
15402;SDS011;7799;53.478;10.170;2023-08-01T04:24:39;3.00;;;2.80;;
15402;SDS011;7799;53.478;10.170;2023-08-01T04:27:05;2.43;;;2.30;;
15402;SDS011;7799;53.478;10.170;2023-08-01T04:29:34;2.30;;;2.20;;
15402;SDS011;7799;53.478;10.170;2023-08-01T04:32:00;2.50;;;2.40;;
15402;SDS011;7799;53.478;10.170;2023-08-01T04:34:27;2.70;;;2.50;;
15402;SDS011;7799;53.478;10.170;2023-08-01T04:36:54;2.70;;;2.50;;
15402;SDS011;7799;53.478;10.170;2023-08-01T04:39:20;2.20;;;2.10;;
15402;SDS011;7799;53.478;10.170;2023-08-01T04:41:47;2.13;;;2.03;;
15402;SDS011;7799;53.478;10.170;2023-08-01T04:44:14;3.00;;;2.80;;
15402;SDS011;7799;53.478;10.170;2023-08-01T04:46:42;3.00;;;2.80;;
15402;SDS011;7799;53.478;10.170;2023-08-01T04:49:09;3.90;;;3.70;;
15402;SDS011;7799;53.478;10.170;2023-08-01T04:51:36;3.80;;;3.60;;
15402;SDS011;7799;53.478;10.170;2023-08-01T04:54:02;3.43;;;3.23;;
15402;SDS011;7799;53.478;10.170;2023-08-01T04:56:29;3.27;;;3.07;;
15402;SDS011;7799;53.478;10.170;2023-08-01T04:58:56;3.03;;;2.83;;
15402;SDS011;7799;53.478;10.170;2023-08-01T05:01:22;2.47;;;2.37;;
15402;SDS011;7799;53.478;10.170;2023-08-01T05:03:50;3.50;;;3.20;;
15402;SDS011;7799;53.478;10.170;2023-08-01T05:06:17;3.23;;;3.03;;
15402;SDS011;7799;53.478;10.170;2023-08-01T05:08:44;3.30;;;3.00;;
15402;SDS011;7799;53.478;10.170;2023-08-01T05:11:10;2.80;;;2.70;;
15402;SDS011;7799;53.478;10.170;2023-08-01T05:13:37;2.93;;;2.80;;
15402;SDS011;7799;53.478;10.170;2023-08-01T05:16:03;2.77;;;2.57;;
15402;SDS011;7799;53.478;10.170;2023-08-01T05:18:30;2.40;;;2.30;;
15402;SDS011;7799;53.478;10.170;2023-08-01T05:20:58;2.10;;;2.00;;
15402;SDS011;7799;53.478;10.170;2023-08-01T05:23:25;2.50;;;2.30;;
15402;SDS011;7799;53.478;10.170;2023-08-01T05:25:51;2.73;;;2.57;;
15402;SDS011;7799;53.478;10.170;2023-08-01T05:28:19;3.00;;;2.80;;
15402;SDS011;7799;53.478;10.170;2023-08-01T05:30:46;3.17;;;2.97;;
15402;SDS011;7799;53.478;10.170;2023-08-01T05:33:13;2.83;;;2.63;;
15402;SDS011;7799;53.478;10.170;2023-08-01T05:35:40;2.90;;;2.70;;
15402;SDS011;7799;53.478;10.170;2023-08-01T05:38:08;2.83;;;2.67;;
15402;SDS011;7799;53.478;10.170;2023-08-01T05:40:35;2.97;;;2.77;;
15402;SDS011;7799;53.478;10.170;2023-08-01T05:43:01;2.70;;;2.60;;
15402;SDS011;7799;53.478;10.170;2023-08-01T05:45:29;2.70;;;2.60;;
15402;SDS011;7799;53.478;10.170;2023-08-01T05:47:56;2.70;;;2.50;;
15402;SDS011;7799;53.478;10.170;2023-08-01T05:50:24;2.57;;;2.47;;
15402;SDS011;7799;53.478;10.170;2023-08-01T05:52:50;2.33;;;2.23;;
15402;SDS011;7799;53.478;10.170;2023-08-01T05:55:18;2.40;;;2.30;;
15402;SDS011;7799;53.478;10.170;2023-08-01T05:57:46;2.60;;;2.50;;
15402;SDS011;7799;53.478;10.170;2023-08-01T06:00:14;2.50;;;2.40;;
15402;SDS011;7799;53.478;10.170;2023-08-01T06:02:41;3.07;;;2.87;;
15402;SDS011;7799;53.478;10.170;2023-08-01T06:05:08;2.70;;;2.60;;
15402;SDS011;7799;53.478;10.170;2023-08-01T06:07:34;2.93;;;2.73;;
15402;SDS011;7799;53.478;10.170;2023-08-01T06:10:01;2.63;;;2.53;;
15402;SDS011;7799;53.478;10.170;2023-08-01T06:12:30;2.80;;;2.60;;
15402;SDS011;7799;53.478;10.170;2023-08-01T06:14:57;2.80;;;2.60;;
15402;SDS011;7799;53.478;10.170;2023-08-01T06:17:23;2.30;;;2.20;;
15402;SDS011;7799;53.478;10.170;2023-08-01T06:19:50;2.60;;;2.40;;
15402;SDS011;7799;53.478;10.170;2023-08-01T06:22:17;2.80;;;2.60;;
15402;SDS011;7799;53.478;10.170;2023-08-01T06:24:44;2.30;;;2.20;;
15402;SDS011;7799;53.478;10.170;2023-08-01T06:27:10;2.50;;;2.30;;
15402;SDS011;7799;53.478;10.170;2023-08-01T06:29:39;2.10;;;2.00;;
15402;SDS011;7799;53.478;10.170;2023-08-01T06:32:06;2.03;;;1.93;;
15402;SDS011;7799;53.478;10.170;2023-08-01T06:34:33;2.10;;;2.00;;
15402;SDS011;7799;53.478;10.170;2023-08-01T06:36:59;2.50;;;2.40;;
15402;SDS011;7799;53.478;10.170;2023-08-01T06:39:26;1.97;;;1.87;;
15402;SDS011;7799;53.478;10.170;2023-08-01T06:41:53;2.53;;;2.43;;
15402;SDS011;7799;53.478;10.170;2023-08-01T06:44:19;2.60;;;2.40;;
15402;SDS011;7799;53.478;10.170;2023-08-01T06:46:47;2.90;;;2.70;;
15402;SDS011;7799;53.478;10.170;2023-08-01T06:49:14;3.63;;;3.43;;
15402;SDS011;7799;53.478;10.170;2023-08-01T06:51:41;3.90;;;3.60;;
15402;SDS011;7799;53.478;10.170;2023-08-01T06:54:08;3.63;;;3.43;;
15402;SDS011;7799;53.478;10.170;2023-08-01T06:56:34;4.00;;;3.70;;
15402;SDS011;7799;53.478;10.170;2023-08-01T06:59:01;3.67;;;3.37;;
15402;SDS011;7799;53.478;10.170;2023-08-01T07:01:28;3.17;;;2.97;;
15402;SDS011;7799;53.478;10.170;2023-08-01T07:03:57;3.40;;;3.10;;
15402;SDS011;7799;53.478;10.170;2023-08-01T07:06:23;2.77;;;2.57;;
15402;SDS011;7799;53.478;10.170;2023-08-01T07:08:50;2.50;;;2.30;;
15402;SDS011;7799;53.478;10.170;2023-08-01T07:11:17;2.60;;;2.40;;
15402;SDS011;7799;53.478;10.170;2023-08-01T07:13:44;2.50;;;2.30;;
15402;SDS011;7799;53.478;10.170;2023-08-01T07:16:10;2.13;;;2.03;;
15402;SDS011;7799;53.478;10.170;2023-08-01T07:18:37;2.00;;;1.90;;
15402;SDS011;7799;53.478;10.170;2023-08-01T07:21:05;1.90;;;1.80;;
15402;SDS011;7799;53.478;10.170;2023-08-01T07:23:33;2.10;;;2.00;;
15402;SDS011;7799;53.478;10.170;2023-08-01T07:26:01;1.90;;;1.80;;
15402;SDS011;7799;53.478;10.170;2023-08-01T07:28:27;2.10;;;2.00;;
15402;SDS011;7799;53.478;10.170;2023-08-01T07:30:58;3.00;;;2.00;;
15402;SDS011;7799;53.478;10.170;2023-08-01T07:33:25;2.00;;;1.90;;
15402;SDS011;7799;53.478;10.170;2023-08-01T07:35:52;2.10;;;2.00;;
15402;SDS011;7799;53.478;10.170;2023-08-01T07:38:20;2.23;;;1.97;;
15402;SDS011;7799;53.478;10.170;2023-08-01T07:40:47;2.03;;;1.93;;
15402;SDS011;7799;53.478;10.170;2023-08-01T07:43:13;2.10;;;2.00;;
15402;SDS011;7799;53.478;10.170;2023-08-01T07:45:40;2.00;;;1.90;;
15402;SDS011;7799;53.478;10.170;2023-08-01T07:48:07;2.00;;;1.90;;
15402;SDS011;7799;53.478;10.170;2023-08-01T07:50:33;2.17;;;2.03;;
15402;SDS011;7799;53.478;10.170;2023-08-01T07:53:00;2.30;;;2.20;;
15402;SDS011;7799;53.478;10.170;2023-08-01T07:55:28;3.23;;;3.00;;
15402;SDS011;7799;53.478;10.170;2023-08-01T07:57:55;2.70;;;2.50;;
15402;SDS011;7799;53.478;10.170;2023-08-01T08:00:21;2.70;;;2.50;;
15402;SDS011;7799;53.478;10.170;2023-08-01T08:02:48;2.70;;;2.50;;
15402;SDS011;7799;53.478;10.170;2023-08-01T08:05:14;2.00;;;1.90;;
15402;SDS011;7799;53.478;10.170;2023-08-01T08:07:41;2.10;;;1.90;;
15402;SDS011;7799;53.478;10.170;2023-08-01T08:10:08;2.10;;;1.90;;
15402;SDS011;7799;53.478;10.170;2023-08-01T08:12:36;2.30;;;2.10;;
15402;SDS011;7799;53.478;10.170;2023-08-01T08:15:03;2.10;;;1.90;;
15402;SDS011;7799;53.478;10.170;2023-08-01T08:17:30;2.03;;;1.93;;
15402;SDS011;7799;53.478;10.170;2023-08-01T08:19:57;2.63;;;2.43;;
15402;SDS011;7799;53.478;10.170;2023-08-01T08:22:23;3.00;;;2.80;;
15402;SDS011;7799;53.478;10.170;2023-08-01T08:24:50;2.87;;;2.67;;
15402;SDS011;7799;53.478;10.170;2023-08-01T08:27:17;3.40;;;3.10;;
15402;SDS011;7799;53.478;10.170;2023-08-01T08:29:45;3.53;;;3.23;;
15402;SDS011;7799;53.478;10.170;2023-08-01T08:32:11;3.30;;;3.00;;
15402;SDS011;7799;53.478;10.170;2023-08-01T08:34:38;3.43;;;3.13;;
15402;SDS011;7799;53.478;10.170;2023-08-01T08:37:05;3.50;;;3.20;;
15402;SDS011;7799;53.478;10.170;2023-08-01T08:39:32;3.13;;;2.90;;
15402;SDS011;7799;53.478;10.170;2023-08-01T08:41:58;3.57;;;3.27;;
15402;SDS011;7799;53.478;10.170;2023-08-01T08:44:25;3.13;;;2.93;;
15402;SDS011;7799;53.478;10.170;2023-08-01T08:46:57;5.33;;;3.90;;
15402;SDS011;7799;53.478;10.170;2023-08-01T08:49:27;4.43;;;4.03;;
15402;SDS011;7799;53.478;10.170;2023-08-01T08:51:54;3.87;;;3.57;;
15402;SDS011;7799;53.478;10.170;2023-08-01T08:54:21;3.77;;;3.47;;
15402;SDS011;7799;53.478;10.170;2023-08-01T08:56:47;3.80;;;3.50;;
15402;SDS011;7799;53.478;10.170;2023-08-01T08:59:14;3.97;;;3.57;;
15402;SDS011;7799;53.478;10.170;2023-08-01T09:01:41;3.63;;;3.33;;
15402;SDS011;7799;53.478;10.170;2023-08-01T09:04:09;3.30;;;3.00;;
15402;SDS011;7799;53.478;10.170;2023-08-01T09:06:37;4.07;;;3.77;;
15402;SDS011;7799;53.478;10.170;2023-08-01T09:09:09;3.93;;;3.63;;
15402;SDS011;7799;53.478;10.170;2023-08-01T09:11:41;4.00;;;3.70;;
15402;SDS011;7799;53.478;10.170;2023-08-01T09:14:10;4.30;;;4.00;;
15402;SDS011;7799;53.478;10.170;2023-08-01T09:16:37;3.97;;;3.70;;
15402;SDS011;7799;53.478;10.170;2023-08-01T09:19:05;4.00;;;3.70;;
15402;SDS011;7799;53.478;10.170;2023-08-01T09:21:34;3.43;;;3.23;;
15402;SDS011;7799;53.478;10.170;2023-08-01T09:24:09;3.33;;;3.13;;
15402;SDS011;7799;53.478;10.170;2023-08-01T09:26:36;2.90;;;2.70;;
15402;SDS011;7799;53.478;10.170;2023-08-01T09:29:03;2.90;;;2.70;;
15402;SDS011;7799;53.478;10.170;2023-08-01T09:31:30;2.40;;;2.20;;
15402;SDS011;7799;53.478;10.170;2023-08-01T09:34:00;3.57;;;2.30;;
15402;SDS011;7799;53.478;10.170;2023-08-01T09:36:27;2.70;;;2.50;;
15402;SDS011;7799;53.478;10.170;2023-08-01T09:38:59;2.70;;;2.50;;
15402;SDS011;7799;53.478;10.170;2023-08-01T09:41:26;3.10;;;2.90;;
15402;SDS011;7799;53.478;10.170;2023-08-01T09:43:53;2.60;;;2.40;;
15402;SDS011;7799;53.478;10.170;2023-08-01T09:46:20;3.03;;;2.83;;
15402;SDS011;7799;53.478;10.170;2023-08-01T09:48:46;3.10;;;2.90;;
15402;SDS011;7799;53.478;10.170;2023-08-01T09:51:14;2.90;;;2.70;;
15402;SDS011;7799;53.478;10.170;2023-08-01T09:53:48;2.70;;;2.50;;
15402;SDS011;7799;53.478;10.170;2023-08-01T09:56:19;2.50;;;2.40;;
15402;SDS011;7799;53.478;10.170;2023-08-01T09:58:47;2.70;;;2.27;;
15402;SDS011;7799;53.478;10.170;2023-08-01T10:01:14;2.20;;;2.00;;
15402;SDS011;7799;53.478;10.170;2023-08-01T10:03:44;2.30;;;2.10;;
15402;SDS011;7799;53.478;10.170;2023-08-01T10:06:11;1.83;;;1.73;;
15402;SDS011;7799;53.478;10.170;2023-08-01T10:08:40;1.50;;;1.40;;
15402;SDS011;7799;53.478;10.170;2023-08-01T10:11:07;1.50;;;1.40;;
15402;SDS011;7799;53.478;10.170;2023-08-01T10:13:36;1.87;;;1.50;;
15402;SDS011;7799;53.478;10.170;2023-08-01T10:16:03;1.50;;;1.40;;
15402;SDS011;7799;53.478;10.170;2023-08-01T10:18:30;1.73;;;1.60;;
15402;SDS011;7799;53.478;10.170;2023-08-01T10:20:57;1.70;;;1.60;;
15402;SDS011;7799;53.478;10.170;2023-08-01T10:23:24;1.20;;;1.20;;
15402;SDS011;7799;53.478;10.170;2023-08-01T10:25:51;1.25;;;1.15;;
15402;SDS011;7799;53.478;10.170;2023-08-01T10:28:19;1.40;;;1.30;;
15402;SDS011;7799;53.478;10.170;2023-08-01T10:30:47;1.40;;;1.30;;
15402;SDS011;7799;53.478;10.170;2023-08-01T10:33:14;1.13;;;1.13;;
15402;SDS011;7799;53.478;10.170;2023-08-01T10:35:40;1.20;;;1.10;;
15402;SDS011;7799;53.478;10.170;2023-08-01T10:38:08;1.38;;;1.27;;
15402;SDS011;7799;53.478;10.170;2023-08-01T10:40:36;1.20;;;1.10;;
15402;SDS011;7799;53.478;10.170;2023-08-01T10:43:04;0.93;;;0.93;;
15402;SDS011;7799;53.478;10.170;2023-08-01T10:45:31;0.95;;;0.90;;
15402;SDS011;7799;53.478;10.170;2023-08-01T10:48:08;1.52;;;0.90;;
15402;SDS011;7799;53.478;10.170;2023-08-01T10:50:36;1.27;;;1.00;;
15402;SDS011;7799;53.478;10.170;2023-08-01T10:53:03;0.95;;;0.90;;
15402;SDS011;7799;53.478;10.170;2023-08-01T10:55:40;1.00;;;0.90;;
15402;SDS011;7799;53.478;10.170;2023-08-01T10:58:08;1.20;;;1.10;;
15402;SDS011;7799;53.478;10.170;2023-08-01T11:00:34;0.98;;;0.98;;
15402;SDS011;7799;53.478;10.170;2023-08-01T11:03:01;1.50;;;0.98;;
15402;SDS011;7799;53.478;10.170;2023-08-01T11:05:29;1.10;;;1.00;;
15402;SDS011;7799;53.478;10.170;2023-08-01T11:07:56;0.98;;;0.90;;
15402;SDS011;7799;53.478;10.170;2023-08-01T11:10:24;1.05;;;1.05;;
15402;SDS011;7799;53.478;10.170;2023-08-01T11:12:51;0.90;;;0.90;;
15402;SDS011;7799;53.478;10.170;2023-08-01T11:15:18;1.45;;;0.90;;
15402;SDS011;7799;53.478;10.170;2023-08-01T11:17:46;1.10;;;1.00;;
15402;SDS011;7799;53.478;10.170;2023-08-01T11:20:15;1.30;;;1.17;;
15402;SDS011;7799;53.478;10.170;2023-08-01T11:22:50;1.10;;;1.05;;
15402;SDS011;7799;53.478;10.170;2023-08-01T11:25:18;1.35;;;1.25;;
15402;SDS011;7799;53.478;10.170;2023-08-01T11:27:45;1.20;;;1.10;;
15402;SDS011;7799;53.478;10.170;2023-08-01T11:30:11;1.52;;;0.93;;
15402;SDS011;7799;53.478;10.170;2023-08-01T11:32:38;2.37;;;0.67;;
15402;SDS011;7799;53.478;10.170;2023-08-01T11:35:05;0.40;;;0.40;;
15402;SDS011;7799;53.478;10.170;2023-08-01T11:37:32;0.50;;;0.50;;
15402;SDS011;7799;53.478;10.170;2023-08-01T11:40:00;0.80;;;0.70;;
15402;SDS011;7799;53.478;10.170;2023-08-01T11:42:31;1.07;;;0.40;;
15402;SDS011;7799;53.478;10.170;2023-08-01T11:45:08;0.60;;;0.40;;
15402;SDS011;7799;53.478;10.170;2023-08-01T11:47:35;0.77;;;0.37;;
15402;SDS011;7799;53.478;10.170;2023-08-01T11:50:02;0.43;;;0.33;;
15402;SDS011;7799;53.478;10.170;2023-08-01T11:52:29;0.40;;;0.40;;
15402;SDS011;7799;53.478;10.170;2023-08-01T11:54:56;0.40;;;0.40;;
15402;SDS011;7799;53.478;10.170;2023-08-01T11:57:24;0.40;;;0.40;;
15402;SDS011;7799;53.478;10.170;2023-08-01T11:59:51;0.30;;;0.30;;
15402;SDS011;7799;53.478;10.170;2023-08-01T12:02:22;0.40;;;0.30;;
15402;SDS011;7799;53.478;10.170;2023-08-01T12:04:49;0.67;;;0.30;;
15402;SDS011;7799;53.478;10.170;2023-08-01T12:07:16;0.37;;;0.37;;
15402;SDS011;7799;53.478;10.170;2023-08-01T12:09:43;0.50;;;0.50;;
15402;SDS011;7799;53.478;10.170;2023-08-01T12:12:09;0.60;;;0.60;;
15402;SDS011;7799;53.478;10.170;2023-08-01T12:14:40;0.60;;;0.60;;
15402;SDS011;7799;53.478;10.170;2023-08-01T12:17:07;0.40;;;0.40;;
15402;SDS011;7799;53.478;10.170;2023-08-01T12:19:34;0.63;;;0.60;;
15402;SDS011;7799;53.478;10.170;2023-08-01T12:22:00;0.60;;;0.60;;
15402;SDS011;7799;53.478;10.170;2023-08-01T12:24:27;0.50;;;0.50;;
15402;SDS011;7799;53.478;10.170;2023-08-01T12:26:54;0.53;;;0.53;;
15402;SDS011;7799;53.478;10.170;2023-08-01T12:29:20;0.50;;;0.50;;
15402;SDS011;7799;53.478;10.170;2023-08-01T12:31:48;0.40;;;0.40;;
15402;SDS011;7799;53.478;10.170;2023-08-01T12:34:15;0.50;;;0.50;;
15402;SDS011;7799;53.478;10.170;2023-08-01T12:36:41;0.40;;;0.40;;
15402;SDS011;7799;53.478;10.170;2023-08-01T12:39:08;0.50;;;0.50;;
15402;SDS011;7799;53.478;10.170;2023-08-01T12:41:36;0.30;;;0.30;;
15402;SDS011;7799;53.478;10.170;2023-08-01T12:44:03;0.37;;;0.37;;
15402;SDS011;7799;53.478;10.170;2023-08-01T12:46:30;0.50;;;0.50;;
15402;SDS011;7799;53.478;10.170;2023-08-01T12:48:58;0.80;;;0.80;;
15402;SDS011;7799;53.478;10.170;2023-08-01T12:51:24;1.13;;;0.60;;
15402;SDS011;7799;53.478;10.170;2023-08-01T12:53:51;0.60;;;0.60;;
15402;SDS011;7799;53.478;10.170;2023-08-01T12:56:18;0.53;;;0.53;;
15402;SDS011;7799;53.478;10.170;2023-08-01T12:58:45;0.63;;;0.60;;
15402;SDS011;7799;53.478;10.170;2023-08-01T13:01:11;0.53;;;0.50;;
15402;SDS011;7799;53.478;10.170;2023-08-01T13:03:38;0.50;;;0.50;;
15402;SDS011;7799;53.478;10.170;2023-08-01T13:06:06;0.83;;;0.70;;
15402;SDS011;7799;53.478;10.170;2023-08-01T13:08:33;0.70;;;0.70;;
15402;SDS011;7799;53.478;10.170;2023-08-01T13:10:59;0.67;;;0.67;;
15402;SDS011;7799;53.478;10.170;2023-08-01T13:13:27;0.57;;;0.57;;
15402;SDS011;7799;53.478;10.170;2023-08-01T13:15:55;0.97;;;0.50;;
15402;SDS011;7799;53.478;10.170;2023-08-01T13:18:22;0.60;;;0.60;;
15402;SDS011;7799;53.478;10.170;2023-08-01T13:20:49;1.17;;;0.90;;
15402;SDS011;7799;53.478;10.170;2023-08-01T13:23:17;0.70;;;0.70;;
15402;SDS011;7799;53.478;10.170;2023-08-01T13:25:43;0.90;;;0.90;;
15402;SDS011;7799;53.478;10.170;2023-08-01T13:31:02;0.83;;;0.83;;
15402;SDS011;7799;53.478;10.170;2023-08-01T13:33:29;1.00;;;1.00;;
15402;SDS011;7799;53.478;10.170;2023-08-01T13:35:55;0.97;;;0.80;;
15402;SDS011;7799;53.478;10.170;2023-08-01T13:38:24;0.70;;;0.70;;
15402;SDS011;7799;53.478;10.170;2023-08-01T13:40:51;0.73;;;0.63;;
15402;SDS011;7799;53.478;10.170;2023-08-01T13:43:17;0.60;;;0.60;;
15402;SDS011;7799;53.478;10.170;2023-08-01T13:45:44;0.50;;;0.50;;
15402;SDS011;7799;53.478;10.170;2023-08-01T13:48:10;0.50;;;0.50;;
15402;SDS011;7799;53.478;10.170;2023-08-01T13:50:37;0.53;;;0.50;;
15402;SDS011;7799;53.478;10.170;2023-08-01T13:53:04;0.60;;;0.50;;
15402;SDS011;7799;53.478;10.170;2023-08-01T13:55:36;0.67;;;0.50;;
15402;SDS011;7799;53.478;10.170;2023-08-01T13:58:03;0.50;;;0.50;;
15402;SDS011;7799;53.478;10.170;2023-08-01T14:00:30;0.30;;;0.30;;
15402;SDS011;7799;53.478;10.170;2023-08-01T14:02:57;0.40;;;0.40;;
15402;SDS011;7799;53.478;10.170;2023-08-01T14:05:24;0.50;;;0.50;;
15402;SDS011;7799;53.478;10.170;2023-08-01T14:07:51;0.40;;;0.40;;
15402;SDS011;7799;53.478;10.170;2023-08-01T14:10:18;0.60;;;0.40;;
15402;SDS011;7799;53.478;10.170;2023-08-01T14:12:46;0.30;;;0.30;;
15402;SDS011;7799;53.478;10.170;2023-08-01T14:15:13;0.50;;;0.50;;
15402;SDS011;7799;53.478;10.170;2023-08-01T14:17:40;0.40;;;0.40;;
15402;SDS011;7799;53.478;10.170;2023-08-01T14:20:07;0.50;;;0.50;;
15402;SDS011;7799;53.478;10.170;2023-08-01T14:22:34;0.30;;;0.30;;
15402;SDS011;7799;53.478;10.170;2023-08-01T14:25:01;0.60;;;0.60;;
15402;SDS011;7799;53.478;10.170;2023-08-01T14:27:28;0.47;;;0.47;;
15402;SDS011;7799;53.478;10.170;2023-08-01T14:29:56;0.40;;;0.40;;
15402;SDS011;7799;53.478;10.170;2023-08-01T14:32:23;0.40;;;0.40;;
15402;SDS011;7799;53.478;10.170;2023-08-01T14:34:50;0.40;;;0.40;;
15402;SDS011;7799;53.478;10.170;2023-08-01T14:37:16;0.73;;;0.40;;
15402;SDS011;7799;53.478;10.170;2023-08-01T14:39:43;0.40;;;0.40;;
15402;SDS011;7799;53.478;10.170;2023-08-01T14:42:10;1.13;;;0.70;;
15402;SDS011;7799;53.478;10.170;2023-08-01T14:44:37;0.40;;;0.40;;
15402;SDS011;7799;53.478;10.170;2023-08-01T14:47:05;0.67;;;0.40;;
15402;SDS011;7799;53.478;10.170;2023-08-01T14:49:32;0.40;;;0.40;;
15402;SDS011;7799;53.478;10.170;2023-08-01T14:51:58;0.30;;;0.30;;